sensor_id;sensor_type;location;lat;lon;timestamp;pressure;altitude;pressure_sealevel;temperature;humidity
14041;BME280;7095;51.388;6.196;2022-09-14T00:01:41;53695.94;;;-145.32;100.00
14041;BME280;7095;51.388;6.196;2022-09-14T00:04:11;53759.56;;;-145.32;100.00
14041;BME280;7095;51.388;6.196;2022-09-14T00:06:41;53785.41;;;-145.32;100.00
14041;BME280;7095;51.388;6.196;2022-09-14T00:09:12;53789.38;;;-145.32;100.00
14041;BME280;7095;51.388;6.196;2022-09-14T00:11:41;53811.25;;;-145.32;100.00
14041;BME280;7095;51.388;6.196;2022-09-14T00:14:11;53858.97;;;-145.32;100.00
14041;BME280;7095;51.388;6.196;2022-09-14T00:16:40;53888.78;;;-145.32;100.00
14041;BME280;7095;51.388;6.196;2022-09-14T00:19:16;53866.91;;;-145.32;100.00
14041;BME280;7095;51.388;6.196;2022-09-14T00:21:46;53916.63;;;-145.32;100.00
14041;BME280;7095;51.388;6.196;2022-09-14T00:24:17;53936.50;;;-145.32;100.00
14041;BME280;7095;51.388;6.196;2022-09-14T00:26:46;53930.53;;;-145.32;100.00
14041;BME280;7095;51.388;6.196;2022-09-14T00:29:18;53986.22;;;-145.32;100.00
14041;BME280;7095;51.388;6.196;2022-09-14T00:31:47;54020.00;;;-145.32;100.00
14041;BME280;7095;51.388;6.196;2022-09-14T00:34:16;54037.91;;;-145.32;100.00
14041;BME280;7095;51.388;6.196;2022-09-14T00:36:46;54039.91;;;-145.32;100.00
14041;BME280;7095;51.388;6.196;2022-09-14T00:39:16;54083.66;;;-145.32;100.00
14041;BME280;7095;51.388;6.196;2022-09-14T00:41:47;54087.63;;;-145.32;100.00
14041;BME280;7095;51.388;6.196;2022-09-14T00:47:30;54175.13;;;-145.32;100.00
14041;BME280;7095;51.388;6.196;2022-09-14T00:50:00;54202.94;;;-145.32;100.00
14041;BME280;7095;51.388;6.196;2022-09-14T00:52:31;54242.72;;;-145.32;100.00
14041;BME280;7095;51.388;6.196;2022-09-14T00:55:02;54236.75;;;-145.32;100.00
14041;BME280;7095;51.388;6.196;2022-09-14T00:57:35;54260.63;;;-145.32;100.00
14041;BME280;7095;51.388;6.196;2022-09-14T01:00:06;54314.31;;;-145.32;100.00
14041;BME280;7095;51.388;6.196;2022-09-14T01:02:38;54282.50;;;-145.32;100.00
14041;BME280;7095;51.388;6.196;2022-09-14T01:05:08;54375.94;;;-145.32;100.00
14041;BME280;7095;51.388;6.196;2022-09-14T01:07:46;54389.88;;;-145.32;100.00
14041;BME280;7095;51.388;6.196;2022-09-14T01:10:28;54499.25;;;-145.32;100.00
14041;BME280;7095;51.388;6.196;2022-09-14T01:13:10;54481.34;;;-145.32;100.00
14041;BME280;7095;51.388;6.196;2022-09-14T01:15:46;54578.78;;;-145.32;100.00
14041;BME280;7095;51.388;6.196;2022-09-14T01:18:21;54660.31;;;-145.32;100.00
14041;BME280;7095;51.388;6.196;2022-09-14T01:20:55;54654.38;;;-145.32;100.00
14041;BME280;7095;51.388;6.196;2022-09-14T01:23:32;54698.13;;;-145.32;100.00
14041;BME280;7095;51.388;6.196;2022-09-14T01:26:26;54807.50;;;-145.32;100.00
14041;BME280;7095;51.388;6.196;2022-09-14T01:29:01;54954.69;;;-145.32;100.00
14041;BME280;7095;51.388;6.196;2022-09-14T01:31:44;54966.59;;;-145.32;100.00
14041;BME280;7095;51.388;6.196;2022-09-14T01:34:18;54900.97;;;-145.32;100.00
14041;BME280;7095;51.388;6.196;2022-09-14T01:36:52;54821.41;;;-145.32;100.00
14041;BME280;7095;51.388;6.196;2022-09-14T01:39:23;54996.44;;;-145.32;100.00
14041;BME280;7095;51.388;6.196;2022-09-14T01:41:53;55062.09;;;-145.32;100.00
14041;BME280;7095;51.388;6.196;2022-09-14T01:44:26;55151.59;;;-145.32;100.00
14041;BME280;7095;51.388;6.196;2022-09-14T01:47:00;55296.78;;;-145.32;100.00
14041;BME280;7095;51.388;6.196;2022-09-14T01:49:34;55352.47;;;-145.32;100.00
14041;BME280;7095;51.388;6.196;2022-09-14T01:52:08;55404.19;;;-145.32;100.00
14041;BME280;7095;51.388;6.196;2022-09-14T01:54:41;55483.78;;;-145.32;100.00
14041;BME280;7095;51.388;6.196;2022-09-14T01:57:13;55483.78;;;-145.32;100.00
14041;BME280;7095;51.388;6.196;2022-09-14T01:59:45;55720.50;;;-145.32;100.00
14041;BME280;7095;51.388;6.196;2022-09-14T02:02:16;55730.44;;;-145.32;100.00
14041;BME280;7095;51.388;6.196;2022-09-14T02:04:51;55640.91;;;-145.32;100.00
14041;BME280;7095;51.388;6.196;2022-09-14T02:07:20;55766.25;;;-145.32;100.00
14041;BME280;7095;51.388;6.196;2022-09-14T02:09:51;55819.97;;;-145.32;100.00
14041;BME280;7095;51.388;6.196;2022-09-14T02:12:21;56064.69;;;-145.32;100.00
14041;BME280;7095;51.388;6.196;2022-09-14T02:14:54;56162.16;;;-145.32;100.00
14041;BME280;7095;51.388;6.196;2022-09-14T02:17:22;56146.25;;;-145.32;100.00
14041;BME280;7095;51.388;6.196;2022-09-14T02:19:53;56092.53;;;-145.32;100.00
14041;BME280;7095;51.388;6.196;2022-09-14T02:22:23;56291.50;;;-145.32;100.00
14041;BME280;7095;51.388;6.196;2022-09-14T02:24:53;56422.81;;;-145.32;100.00
14041;BME280;7095;51.388;6.196;2022-09-14T02:27:22;56522.31;;;-145.32;100.00
14041;BME280;7095;51.388;6.196;2022-09-14T02:29:52;56359.13;;;-145.32;100.00
14041;BME280;7095;51.388;6.196;2022-09-14T02:32:29;56359.13;;;-145.32;100.00
14041;BME280;7095;51.388;6.196;2022-09-14T02:35:05;56450.66;;;-145.32;100.00
14041;BME280;7095;51.388;6.196;2022-09-14T02:37:43;56812.84;;;-145.32;100.00
14041;BME280;7095;51.388;6.196;2022-09-14T02:40:22;56677.50;;;-145.32;100.00
14041;BME280;7095;51.388;6.196;2022-09-14T02:43:01;56737.22;;;-145.32;100.00
14041;BME280;7095;51.388;6.196;2022-09-14T02:45:38;56773.03;;;-145.32;100.00
14041;BME280;7095;51.388;6.196;2022-09-14T02:48:14;56633.75;;;-145.32;100.00
14041;BME280;7095;51.388;6.196;2022-09-14T02:50:50;56794.91;;;-145.32;100.00
14041;BME280;7095;51.388;6.196;2022-09-14T02:53:25;57085.47;;;-145.32;100.00
14041;BME280;7095;51.388;6.196;2022-09-14T02:55:59;56914.31;;;-145.32;100.00
14041;BME280;7095;51.388;6.196;2022-09-14T02:58:33;57218.81;;;-145.32;100.00
14041;BME280;7095;51.388;6.196;2022-09-14T03:01:03;57366.09;;;-145.32;100.00
14041;BME280;7095;51.388;6.196;2022-09-14T03:03:34;57732.34;;;-145.32;100.00
14041;BME280;7095;51.388;6.196;2022-09-14T03:06:02;58230.00;;;-145.32;100.00
14041;BME280;7095;51.388;6.196;2022-09-14T03:08:32;57435.75;;;-145.32;100.00
14041;BME280;7095;51.388;6.196;2022-09-14T03:11:01;58184.22;;;-145.32;100.00
14041;BME280;7095;51.388;6.196;2022-09-14T03:13:29;58447.03;;;-145.32;100.00
14041;BME280;7095;51.388;6.196;2022-09-14T03:15:58;58321.59;;;-145.32;100.00
14041;BME280;7095;51.388;6.196;2022-09-14T03:18:26;58026.94;;;-145.32;100.00
14041;BME280;7095;51.388;6.196;2022-09-14T03:21:02;58343.50;;;-145.32;100.00
14041;BME280;7095;51.388;6.196;2022-09-14T03:23:34;58026.94;;;-145.32;100.00
14041;BME280;7095;51.388;6.196;2022-09-14T03:26:06;58092.66;;;-145.32;100.00
14041;BME280;7095;51.388;6.196;2022-09-14T03:28:35;58807.41;;;-145.32;100.00
14041;BME280;7095;51.388;6.196;2022-09-14T03:31:05;58795.47;;;-145.32;100.00
14041;BME280;7095;51.388;6.196;2022-09-14T03:33:34;58685.94;;;-145.32;100.00
14041;BME280;7095;51.388;6.196;2022-09-14T03:36:10;58472.91;;;-145.32;100.00
14041;BME280;7095;51.388;6.196;2022-09-14T03:38:42;58237.97;;;-145.32;100.00
14041;BME280;7095;51.388;6.196;2022-09-14T03:41:11;58427.09;;;-145.32;100.00
14041;BME280;7095;51.388;6.196;2022-09-14T03:43:41;58385.31;;;-145.32;100.00
14041;BME280;7095;51.388;6.196;2022-09-14T03:46:11;58464.94;;;-145.32;100.00
14041;BME280;7095;51.388;6.196;2022-09-14T03:48:41;58689.94;;;-145.32;100.00
14041;BME280;7095;51.388;6.196;2022-09-14T03:51:12;59028.44;;;-145.32;100.00
14041;BME280;7095;51.388;6.196;2022-09-14T03:53:42;59122.03;;;-145.32;100.00
14041;BME280;7095;51.388;6.196;2022-09-14T03:56:12;58791.47;;;-145.32;100.00
14041;BME280;7095;51.388;6.196;2022-09-14T03:58:41;58644.13;;;-145.32;100.00
14041;BME280;7095;51.388;6.196;2022-09-14T04:01:12;58755.63;;;-145.32;100.00
14041;BME280;7095;51.388;6.196;2022-09-14T04:03:42;59024.44;;;-145.32;100.00
14041;BME280;7095;51.388;6.196;2022-09-14T04:06:12;59516.34;;;-145.32;100.00
14041;BME280;7095;51.388;6.196;2022-09-14T04:08:43;59588.03;;;-145.32;100.00
14041;BME280;7095;51.388;6.196;2022-09-14T04:11:13;59173.81;;;-145.32;100.00
14041;BME280;7095;51.388;6.196;2022-09-14T04:13:42;59181.75;;;-145.32;100.00
14041;BME280;7095;51.388;6.196;2022-09-14T04:16:12;59703.56;;;-145.32;100.00
14041;BME280;7095;51.388;6.196;2022-09-14T04:18:41;59327.13;;;-145.32;100.00
14041;BME280;7095;51.388;6.196;2022-09-14T04:21:13;59532.28;;;-145.32;100.00
14041;BME280;7095;51.388;6.196;2022-09-14T04:23:42;59860.91;;;-145.32;100.00
14041;BME280;7095;51.388;6.196;2022-09-14T04:26:32;60084.00;;;-145.32;100.00
14041;BME280;7095;51.388;6.196;2022-09-14T04:29:00;60366.84;;;-145.32;100.00
14041;BME280;7095;51.388;6.196;2022-09-14T04:31:29;60432.59;;;-145.32;100.00
14041;BME280;7095;51.388;6.196;2022-09-14T04:33:57;60334.97;;;-145.32;100.00
14041;BME280;7095;51.388;6.196;2022-09-14T04:36:28;60506.31;;;-145.32;100.00
14041;BME280;7095;51.388;6.196;2022-09-14T04:38:58;60743.38;;;-145.32;100.00
14041;BME280;7095;51.388;6.196;2022-09-14T04:41:28;60372.81;;;-145.32;100.00
14041;BME280;7095;51.388;6.196;2022-09-14T04:43:57;60615.88;;;-145.32;100.00
14041;BME280;7095;51.388;6.196;2022-09-14T04:46:27;59984.41;;;-145.32;100.00
14041;BME280;7095;51.388;6.196;2022-09-14T04:48:56;60199.53;;;-145.32;100.00
14041;BME280;7095;51.388;6.196;2022-09-14T04:51:28;60476.41;;;-145.32;100.00
14041;BME280;7095;51.388;6.196;2022-09-14T04:53:57;60647.75;;;-145.32;100.00
14041;BME280;7095;51.388;6.196;2022-09-14T04:56:27;61171.75;;;-145.32;100.00
14041;BME280;7095;51.388;6.196;2022-09-14T04:58:57;60962.53;;;-145.32;100.00
14041;BME280;7095;51.388;6.196;2022-09-14T05:01:30;60548.13;;;-145.32;100.00
14041;BME280;7095;51.388;6.196;2022-09-14T05:03:59;60068.06;;;-145.32;100.00
14041;BME280;7095;51.388;6.196;2022-09-14T05:06:31;59592.03;;;-145.32;100.00
14041;BME280;7095;51.388;6.196;2022-09-14T05:09:01;59996.34;;;-145.32;100.00
14041;BME280;7095;51.388;6.196;2022-09-14T05:11:31;60380.78;;;-145.32;100.00
14041;BME280;7095;51.388;6.196;2022-09-14T05:14:01;60530.22;;;-145.32;100.00
14041;BME280;7095;51.388;6.196;2022-09-14T05:16:31;61006.38;;;-145.32;100.00
14041;BME280;7095;51.388;6.196;2022-09-14T05:19:01;60496.34;;;-145.32;100.00
14041;BME280;7095;51.388;6.196;2022-09-14T05:21:33;60747.38;;;-145.32;100.00
14041;BME280;7095;51.388;6.196;2022-09-14T05:24:05;61337.13;;;-145.32;100.00
14041;BME280;7095;51.388;6.196;2022-09-14T05:26:34;60488.38;;;-145.32;100.00
14041;BME280;7095;51.388;6.196;2022-09-14T05:29:03;60574.03;;;-145.32;100.00
14041;BME280;7095;51.388;6.196;2022-09-14T05:31:32;60675.63;;;-145.32;100.00
14041;BME280;7095;51.388;6.196;2022-09-14T05:34:00;60803.16;;;-145.32;100.00
14041;BME280;7095;51.388;6.196;2022-09-14T05:36:30;61377.00;;;-145.32;100.00
14041;BME280;7095;51.388;6.196;2022-09-14T05:38:59;61269.38;;;-145.32;100.00
14041;BME280;7095;51.388;6.196;2022-09-14T05:41:28;61251.47;;;-145.32;100.00
14041;BME280;7095;51.388;6.196;2022-09-14T05:43:57;61094.03;;;-145.32;100.00
14041;BME280;7095;51.388;6.196;2022-09-14T05:46:26;61644.03;;;-145.32;100.00
14041;BME280;7095;51.388;6.196;2022-09-14T05:48:55;62022.69;;;-145.32;100.00
14041;BME280;7095;51.388;6.196;2022-09-14T05:51:25;62481.13;;;-145.32;100.00
14041;BME280;7095;51.388;6.196;2022-09-14T05:53:57;63057.22;;;-145.32;100.00
14041;BME280;7095;51.388;6.196;2022-09-14T05:56:27;62056.56;;;-145.32;100.00
14041;BME280;7095;51.388;6.196;2022-09-14T05:58:57;62433.28;;;-145.32;100.00
14041;BME280;7095;51.388;6.196;2022-09-14T06:01:30;62345.56;;;-145.32;100.00
14041;BME280;7095;51.388;6.196;2022-09-14T06:04:00;63509.81;;;-145.32;100.00
14041;BME280;7095;51.388;6.196;2022-09-14T06:06:30;63978.44;;;-145.32;100.00
14041;BME280;7095;51.388;6.196;2022-09-14T06:09:01;63418.09;;;-145.32;100.00
14041;BME280;7095;51.388;6.196;2022-09-14T06:11:31;63172.88;;;-145.32;100.00
14041;BME280;7095;51.388;6.196;2022-09-14T06:14:02;64259.63;;;-145.32;100.00
14041;BME280;7095;51.388;6.196;2022-09-14T06:16:30;63904.66;;;-145.32;100.00
14041;BME280;7095;51.388;6.196;2022-09-14T06:18:59;64614.66;;;-145.32;100.00
14041;BME280;7095;51.388;6.196;2022-09-14T06:21:29;64223.72;;;-145.32;100.00
14041;BME280;7095;51.388;6.196;2022-09-14T06:23:58;64197.81;;;-145.32;100.00
14041;BME280;7095;51.388;6.196;2022-09-14T06:26:28;63920.59;;;-145.32;100.00
14041;BME280;7095;51.388;6.196;2022-09-14T06:28:57;64662.50;;;-145.32;100.00
14041;BME280;7095;51.388;6.196;2022-09-14T06:31:25;65075.41;;;-145.32;100.00
14041;BME280;7095;51.388;6.196;2022-09-14T06:33:54;66565.91;;;-145.32;100.00
14041;BME280;7095;51.388;6.196;2022-09-14T06:36:23;65955.25;;;-145.32;100.00
14041;BME280;7095;51.388;6.196;2022-09-14T06:38:53;65903.38;;;-145.32;100.00
14041;BME280;7095;51.388;6.196;2022-09-14T06:41:24;66160.78;;;-145.32;100.00
14041;BME280;7095;51.388;6.196;2022-09-14T06:43:57;66078.97;;;-145.32;100.00
14041;BME280;7095;51.388;6.196;2022-09-14T06:46:29;66951.09;;;-145.32;100.00
14041;BME280;7095;51.388;6.196;2022-09-14T06:49:00;66583.84;;;-145.32;100.00
14041;BME280;7095;51.388;6.196;2022-09-14T06:51:30;66170.78;;;-145.32;100.00
14041;BME280;7095;51.388;6.196;2022-09-14T06:53:59;66300.47;;;-145.32;100.00
14041;BME280;7095;51.388;6.196;2022-09-14T06:56:31;67935.25;;;-145.32;100.00
14041;BME280;7095;51.388;6.196;2022-09-14T06:59:01;68801.84;;;-145.32;100.00
14041;BME280;7095;51.388;6.196;2022-09-14T07:01:30;68468.34;;;-145.32;100.00
14041;BME280;7095;51.388;6.196;2022-09-14T07:03:59;68084.97;;;-145.32;100.00
14041;BME280;7095;51.388;6.196;2022-09-14T07:06:28;69532.81;;;-145.32;100.00
14041;BME280;7095;51.388;6.196;2022-09-14T07:08:58;69478.91;;;-145.32;100.00
14041;BME280;7095;51.388;6.196;2022-09-14T07:11:26;70779.47;;;-145.32;100.00
14041;BME280;7095;51.388;6.196;2022-09-14T07:13:56;69768.53;;;-145.32;100.00
14041;BME280;7095;51.388;6.196;2022-09-14T07:16:27;70279.94;;;-145.32;100.00
14041;BME280;7095;51.388;6.196;2022-09-14T07:18:56;71442.94;;;-145.32;100.00
14041;BME280;7095;51.388;6.196;2022-09-14T07:21:25;72722.25;;;-145.32;100.00
14041;BME280;7095;51.388;6.196;2022-09-14T07:23:54;72978.16;;;-145.32;100.00
14041;BME280;7095;51.388;6.196;2022-09-14T07:26:24;73234.09;;;-145.32;100.00
14041;BME280;7095;51.388;6.196;2022-09-14T07:28:57;72722.25;;;-145.32;100.00
14041;BME280;7095;51.388;6.196;2022-09-14T07:31:29;72722.25;;;-145.32;100.00
14041;BME280;7095;51.388;6.196;2022-09-14T07:33:59;71904.63;;;-145.32;100.00
14041;BME280;7095;51.388;6.196;2022-09-14T07:36:30;73234.09;;;-145.32;100.00
14041;BME280;7095;51.388;6.196;2022-09-14T07:39:02;75026.22;;;-145.32;100.00
14041;BME280;7095;51.388;6.196;2022-09-14T07:41:32;75282.31;;;-145.32;100.00
14041;BME280;7095;51.388;6.196;2022-09-14T07:44:02;75794.56;;;-145.32;100.00
14041;BME280;7095;51.388;6.196;2022-09-14T07:46:37;74514.09;;;-145.32;100.00
14041;BME280;7095;51.388;6.196;2022-09-14T07:49:07;76050.72;;;-145.32;100.00
14041;BME280;7095;51.388;6.196;2022-09-14T07:51:37;76563.09;;;-145.32;100.00
14041;BME280;7095;51.388;6.196;2022-09-14T07:54:07;76563.09;;;-145.32;100.00
14041;BME280;7095;51.388;6.196;2022-09-14T07:56:37;77331.78;;;-145.32;100.00
14041;BME280;7095;51.388;6.196;2022-09-14T07:59:09;76819.28;;;-145.32;100.00
14041;BME280;7095;51.388;6.196;2022-09-14T08:01:59;76819.28;;;-145.32;100.00
14041;BME280;7095;51.388;6.196;2022-09-14T08:04:27;77075.53;;;-145.32;100.00
14041;BME280;7095;51.388;6.196;2022-09-14T08:06:56;78100.63;;;-145.32;100.00
14041;BME280;7095;51.388;6.196;2022-09-14T08:09:25;77844.31;;;-145.32;100.00
14041;BME280;7095;51.388;6.196;2022-09-14T08:11:53;78356.94;;;-145.32;100.00
14041;BME280;7095;51.388;6.196;2022-09-14T08:14:23;78356.94;;;-145.32;100.00
14041;BME280;7095;51.388;6.196;2022-09-14T08:16:52;78356.94;;;-145.32;100.00
14041;BME280;7095;51.388;6.196;2022-09-14T08:19:22;79638.84;;;-145.32;100.00
14041;BME280;7095;51.388;6.196;2022-09-14T08:21:50;80151.75;;;-145.32;100.00
14041;BME280;7095;51.388;6.196;2022-09-14T08:24:20;80408.22;;;-145.32;100.00
14041;BME280;7095;51.388;6.196;2022-09-14T08:26:49;80408.22;;;-145.32;100.00
14041;BME280;7095;51.388;6.196;2022-09-14T08:29:18;79895.28;;;-145.32;100.00
14041;BME280;7095;51.388;6.196;2022-09-14T08:31:47;79895.28;;;-145.32;100.00
14041;BME280;7095;51.388;6.196;2022-09-14T08:34:18;79382.44;;;-145.32;100.00
14041;BME280;7095;51.388;6.196;2022-09-14T08:36:48;79126.03;;;-145.32;100.00
14041;BME280;7095;51.388;6.196;2022-09-14T08:39:17;79638.84;;;-145.32;100.00
14041;BME280;7095;51.388;6.196;2022-09-14T08:41:50;78356.94;;;-145.32;100.00
14041;BME280;7095;51.388;6.196;2022-09-14T08:44:23;78613.28;;;-145.32;100.00
14041;BME280;7095;51.388;6.196;2022-09-14T08:46:58;76819.28;;;-145.32;100.00
14041;BME280;7095;51.388;6.196;2022-09-14T08:49:44;77844.31;;;-145.32;100.00
14041;BME280;7095;51.388;6.196;2022-09-14T08:52:21;77331.78;;;-145.32;100.00
14041;BME280;7095;51.388;6.196;2022-09-14T08:54:55;75538.44;;;-145.32;100.00
14041;BME280;7095;51.388;6.196;2022-09-14T08:57:29;75538.44;;;-145.32;100.00
14041;BME280;7095;51.388;6.196;2022-09-14T09:00:07;75282.31;;;-145.32;100.00
14041;BME280;7095;51.388;6.196;2022-09-14T09:02:48;73746.06;;;-145.32;100.00
14041;BME280;7095;51.388;6.196;2022-09-14T09:05:27;73746.06;;;-145.32;100.00
14041;BME280;7095;51.388;6.196;2022-09-14T09:08:04;74258.06;;;-145.32;100.00
14041;BME280;7095;51.388;6.196;2022-09-14T09:10:36;74258.06;;;-145.32;100.00
14041;BME280;7095;51.388;6.196;2022-09-14T09:13:10;74514.09;;;-145.32;100.00
14041;BME280;7095;51.388;6.196;2022-09-14T09:15:43;75282.31;;;-145.32;100.00
14041;BME280;7095;51.388;6.196;2022-09-14T09:18:18;74770.16;;;-145.32;100.00
14041;BME280;7095;51.388;6.196;2022-09-14T09:20:50;75026.22;;;-145.32;100.00
14041;BME280;7095;51.388;6.196;2022-09-14T09:23:21;72978.16;;;-145.32;100.00
14041;BME280;7095;51.388;6.196;2022-09-14T09:25:54;72978.16;;;-145.32;100.00
14041;BME280;7095;51.388;6.196;2022-09-14T09:28:26;73234.09;;;-145.32;100.00
14041;BME280;7095;51.388;6.196;2022-09-14T09:30:59;72978.16;;;-145.32;100.00
14041;BME280;7095;51.388;6.196;2022-09-14T09:33:51;74002.03;;;-145.32;100.00
14041;BME280;7095;51.388;6.196;2022-09-14T09:36:22;76306.91;;;-145.32;100.00
14041;BME280;7095;51.388;6.196;2022-09-14T09:38:52;75026.22;;;-145.32;100.00
14041;BME280;7095;51.388;6.196;2022-09-14T09:41:23;75282.31;;;-145.32;100.00
14041;BME280;7095;51.388;6.196;2022-09-14T09:43:58;74514.09;;;-145.32;100.00
14041;BME280;7095;51.388;6.196;2022-09-14T09:46:29;73234.09;;;-145.32;100.00
14041;BME280;7095;51.388;6.196;2022-09-14T09:49:02;73234.09;;;-145.32;100.00
14041;BME280;7095;51.388;6.196;2022-09-14T09:51:32;73234.09;;;-145.32;100.00
14041;BME280;7095;51.388;6.196;2022-09-14T09:54:06;74258.06;;;-145.32;100.00
14041;BME280;7095;51.388;6.196;2022-09-14T09:56:37;73490.06;;;-145.32;100.00
14041;BME280;7095;51.388;6.196;2022-09-14T09:59:22;76050.72;;;-145.32;100.00
14041;BME280;7095;51.388;6.196;2022-09-14T10:01:54;75538.44;;;-145.32;100.00
14041;BME280;7095;51.388;6.196;2022-09-14T10:04:25;76306.91;;;-145.32;100.00
14041;BME280;7095;51.388;6.196;2022-09-14T10:06:56;74514.09;;;-145.32;100.00
14041;BME280;7095;51.388;6.196;2022-09-14T10:09:27;75026.22;;;-145.32;100.00
14041;BME280;7095;51.388;6.196;2022-09-14T10:11:57;75026.22;;;-145.32;100.00
14041;BME280;7095;51.388;6.196;2022-09-14T10:14:28;74002.03;;;-145.32;100.00
14041;BME280;7095;51.388;6.196;2022-09-14T10:17:07;75794.56;;;-145.32;100.00
14041;BME280;7095;51.388;6.196;2022-09-14T10:19:46;74770.16;;;-145.32;100.00
14041;BME280;7095;51.388;6.196;2022-09-14T10:22:17;73234.09;;;-145.32;100.00
14041;BME280;7095;51.388;6.196;2022-09-14T10:24:56;72146.50;;;-145.32;100.00
14041;BME280;7095;51.388;6.196;2022-09-14T10:27:35;71442.94;;;-145.32;100.00
14041;BME280;7095;51.388;6.196;2022-09-14T10:30:11;69139.34;;;-145.32;100.00
14041;BME280;7095;51.388;6.196;2022-09-14T10:32:44;70427.81;;;-145.32;100.00
14041;BME280;7095;51.388;6.196;2022-09-14T10:35:16;69930.34;;;-145.32;100.00
14041;BME280;7095;51.388;6.196;2022-09-14T10:38:03;69414.97;;;-145.32;100.00
14041;BME280;7095;51.388;6.196;2022-09-14T10:40:35;67230.53;;;-145.32;100.00
14041;BME280;7095;51.388;6.196;2022-09-14T10:43:14;69506.84;;;-145.32;100.00
14041;BME280;7095;51.388;6.196;2022-09-14T10:45:48;69165.31;;;-145.32;100.00
14041;BME280;7095;51.388;6.196;2022-09-14T10:48:40;68506.28;;;-145.32;100.00
14041;BME280;7095;51.388;6.196;2022-09-14T10:51:38;65801.63;;;-145.32;100.00
14041;BME280;7095;51.388;6.196;2022-09-14T10:54:19;64227.72;;;-145.32;100.00
14041;BME280;7095;51.388;6.196;2022-09-14T10:57:00;64291.53;;;-145.32;100.00
14041;BME280;7095;51.388;6.196;2022-09-14T10:59:39;64774.22;;;-145.32;100.00
14041;BME280;7095;51.388;6.196;2022-09-14T11:02:38;65466.44;;;-145.32;100.00
14041;BME280;7095;51.388;6.196;2022-09-14T11:05:15;64459.06;;;-145.32;100.00
14041;BME280;7095;51.388;6.196;2022-09-14T11:08:00;65699.88;;;-145.32;100.00
14041;BME280;7095;51.388;6.196;2022-09-14T11:10:37;63007.41;;;-145.32;100.00
14041;BME280;7095;51.388;6.196;2022-09-14T11:13:31;61921.03;;;-145.32;100.00
14041;BME280;7095;51.388;6.196;2022-09-14T11:16:10;62066.53;;;-145.32;100.00
14041;BME280;7095;51.388;6.196;2022-09-14T11:18:49;62489.09;;;-145.32;100.00
14041;BME280;7095;51.388;6.196;2022-09-14T11:21:30;62305.72;;;-145.32;100.00
14041;BME280;7095;51.388;6.196;2022-09-14T11:24:10;60225.41;;;-145.32;100.00
14041;BME280;7095;51.388;6.196;2022-09-14T11:26:41;59078.22;;;-145.32;100.00
14041;BME280;7095;51.388;6.196;2022-09-14T11:29:17;58795.47;;;-145.32;100.00
14041;BME280;7095;51.388;6.196;2022-09-14T11:31:50;58498.78;;;-145.32;100.00
14041;BME280;7095;51.388;6.196;2022-09-14T11:34:42;58510.72;;;-145.32;100.00
14041;BME280;7095;51.388;6.196;2022-09-14T11:37:16;58409.19;;;-145.32;100.00
14041;BME280;7095;51.388;6.196;2022-09-14T11:39:50;57905.53;;;-145.32;100.00
14041;BME280;7095;51.388;6.196;2022-09-14T11:42:31;57967.22;;;-145.32;100.00
14041;BME280;7095;51.388;6.196;2022-09-14T11:45:29;57453.69;;;-145.32;100.00
14041;BME280;7095;51.388;6.196;2022-09-14T11:48:09;57807.97;;;-145.32;100.00
14041;BME280;7095;51.388;6.196;2022-09-14T11:51:05;57234.75;;;-145.32;100.00
14041;BME280;7095;51.388;6.196;2022-09-14T11:53:35;57224.78;;;-145.32;100.00
14041;BME280;7095;51.388;6.196;2022-09-14T11:56:04;57489.50;;;-145.32;100.00
14041;BME280;7095;51.388;6.196;2022-09-14T11:58:33;56711.34;;;-145.32;100.00
14041;BME280;7095;51.388;6.196;2022-09-14T12:01:25;56848.66;;;-145.32;100.00
14041;BME280;7095;51.388;6.196;2022-09-14T12:04:14;57135.22;;;-145.32;100.00
14041;BME280;7095;51.388;6.196;2022-09-14T12:06:48;56886.47;;;-145.32;100.00
14041;BME280;7095;51.388;6.196;2022-09-14T12:09:45;56773.03;;;-145.32;100.00
14041;BME280;7095;51.388;6.196;2022-09-14T12:12:35;56920.28;;;-145.32;100.00
14041;BME280;7095;51.388;6.196;2022-09-14T12:15:31;56430.78;;;-145.32;100.00
14041;BME280;7095;51.388;6.196;2022-09-14T12:18:21;56578.03;;;-145.32;100.00
14041;BME280;7095;51.388;6.196;2022-09-14T12:21:05;56066.66;;;-145.32;100.00
14041;BME280;7095;51.388;6.196;2022-09-14T12:23:52;56347.19;;;-145.32;100.00
14041;BME280;7095;51.388;6.196;2022-09-14T12:26:30;56325.31;;;-145.32;100.00
14041;BME280;7095;51.388;6.196;2022-09-14T12:29:30;56645.69;;;-145.32;100.00
14041;BME280;7095;51.388;6.196;2022-09-14T12:32:39;56796.91;;;-145.32;100.00
14041;BME280;7095;51.388;6.196;2022-09-14T12:35:47;56711.34;;;-145.32;100.00
14041;BME280;7095;51.388;6.196;2022-09-14T12:38:41;56036.81;;;-145.32;100.00
14041;BME280;7095;51.388;6.196;2022-09-14T12:44:30;56180.06;;;-145.32;100.00
14041;BME280;7095;51.388;6.196;2022-09-14T12:50:19;56255.69;;;-145.32;100.00
14041;BME280;7095;51.388;6.196;2022-09-14T12:53:24;56152.22;;;-145.32;100.00
14041;BME280;7095;51.388;6.196;2022-09-14T12:56:01;55885.63;;;-145.32;100.00
14041;BME280;7095;51.388;6.196;2022-09-14T12:58:52;55875.66;;;-145.32;100.00
14041;BME280;7095;51.388;6.196;2022-09-14T13:01:34;56197.97;;;-145.32;100.00
14041;BME280;7095;51.388;6.196;2022-09-14T13:04:10;56387.00;;;-145.32;100.00
14041;BME280;7095;51.388;6.196;2022-09-14T13:06:43;56267.63;;;-145.32;100.00
14041;BME280;7095;51.388;6.196;2022-09-14T13:09:18;56432.75;;;-145.32;100.00
14041;BME280;7095;51.388;6.196;2022-09-14T13:11:54;56582.00;;;-145.32;100.00
14041;BME280;7095;51.388;6.196;2022-09-14T13:14:45;56339.25;;;-145.32;100.00
14041;BME280;7095;51.388;6.196;2022-09-14T13:17:16;56096.50;;;-145.32;100.00
14041;BME280;7095;51.388;6.196;2022-09-14T13:19:53;55831.91;;;-145.32;100.00
14041;BME280;7095;51.388;6.196;2022-09-14T13:22:24;55798.09;;;-145.32;100.00
14041;BME280;7095;51.388;6.196;2022-09-14T13:24:57;55784.16;;;-145.32;100.00